sensor_id;sensor_type;location;lat;lon;timestamp;temperature;humidity
20459;DHT22;10388;52.314;7.938;2023-08-24T03:31:14;14.90;99.90
20459;DHT22;10388;52.314;7.938;2023-08-24T03:33:45;14.90;99.90
20459;DHT22;10388;52.314;7.938;2023-08-24T03:36:16;15.00;99.90
20459;DHT22;10388;52.314;7.938;2023-08-24T03:38:46;15.00;99.90
20459;DHT22;10388;52.314;7.938;2023-08-24T03:41:17;15.00;99.90
20459;DHT22;10388;52.314;7.938;2023-08-24T03:43:47;15.00;99.90
20459;DHT22;10388;52.314;7.938;2023-08-24T03:46:18;15.10;99.90
20459;DHT22;10388;52.314;7.938;2023-08-24T03:48:48;15.10;99.90
20459;DHT22;10388;52.314;7.938;2023-08-24T03:51:19;15.10;99.90
20459;DHT22;10388;52.314;7.938;2023-08-24T03:53:49;15.10;99.90
20459;DHT22;10388;52.314;7.938;2023-08-24T03:56:20;15.10;99.90
20459;DHT22;10388;52.314;7.938;2023-08-24T03:58:50;15.10;99.90
20459;DHT22;10388;52.314;7.938;2023-08-24T04:01:21;15.20;99.90
20459;DHT22;10388;52.314;7.938;2023-08-24T04:03:52;15.10;99.90
20459;DHT22;10388;52.314;7.938;2023-08-24T04:06:23;15.10;99.90
20459;DHT22;10388;52.314;7.938;2023-08-24T04:08:54;15.10;99.90
20459;DHT22;10388;52.314;7.938;2023-08-24T04:11:24;15.20;99.90
20459;DHT22;10388;52.314;7.938;2023-08-24T04:13:55;15.20;99.90
20459;DHT22;10388;52.314;7.938;2023-08-24T04:16:25;15.30;99.90
20459;DHT22;10388;52.314;7.938;2023-08-24T04:18:56;15.30;99.90
20459;DHT22;10388;52.314;7.938;2023-08-24T04:21:26;15.30;99.90
20459;DHT22;10388;52.314;7.938;2023-08-24T04:23:57;15.30;99.90
20459;DHT22;10388;52.314;7.938;2023-08-24T04:26:27;15.40;99.90
20459;DHT22;10388;52.314;7.938;2023-08-24T04:28:58;15.40;99.90
20459;DHT22;10388;52.314;7.938;2023-08-24T04:31:28;15.40;99.90
20459;DHT22;10388;52.314;7.938;2023-08-24T04:33:59;15.50;99.90
20459;DHT22;10388;52.314;7.938;2023-08-24T04:36:29;15.50;99.90
20459;DHT22;10388;52.314;7.938;2023-08-24T04:39:00;15.50;99.90
20459;DHT22;10388;52.314;7.938;2023-08-24T04:41:31;15.50;99.90
20459;DHT22;10388;52.314;7.938;2023-08-24T04:44:01;15.50;99.90
20459;DHT22;10388;52.314;7.938;2023-08-24T04:46:32;15.60;99.90
20459;DHT22;10388;52.314;7.938;2023-08-24T04:49:03;15.60;99.90
20459;DHT22;10388;52.314;7.938;2023-08-24T04:51:34;15.60;99.90
20459;DHT22;10388;52.314;7.938;2023-08-24T04:54:04;15.60;99.90
20459;DHT22;10388;52.314;7.938;2023-08-24T04:56:35;15.60;99.90
20459;DHT22;10388;52.314;7.938;2023-08-24T04:59:05;15.70;99.90
20459;DHT22;10388;52.314;7.938;2023-08-24T05:01:38;15.70;99.90
20459;DHT22;10388;52.314;7.938;2023-08-24T05:04:08;15.80;99.90
20459;DHT22;10388;52.314;7.938;2023-08-24T05:06:39;15.80;99.90
20459;DHT22;10388;52.314;7.938;2023-08-24T05:09:10;15.80;99.90
20459;DHT22;10388;52.314;7.938;2023-08-24T05:11:40;15.80;99.90
20459;DHT22;10388;52.314;7.938;2023-08-24T05:14:11;15.80;99.90
20459;DHT22;10388;52.314;7.938;2023-08-24T05:16:41;15.90;99.90
20459;DHT22;10388;52.314;7.938;2023-08-24T05:19:12;15.90;99.90
20459;DHT22;10388;52.314;7.938;2023-08-24T05:21:42;16.00;99.90
20459;DHT22;10388;52.314;7.938;2023-08-24T05:24:13;16.00;99.90
20459;DHT22;10388;52.314;7.938;2023-08-24T05:26:43;16.00;99.90
20459;DHT22;10388;52.314;7.938;2023-08-24T05:29:14;16.00;99.90
20459;DHT22;10388;52.314;7.938;2023-08-24T05:31:44;16.10;99.90
20459;DHT22;10388;52.314;7.938;2023-08-24T05:34:15;16.10;99.90
20459;DHT22;10388;52.314;7.938;2023-08-24T05:36:45;16.10;99.90
20459;DHT22;10388;52.314;7.938;2023-08-24T05:39:16;16.20;99.90
20459;DHT22;10388;52.314;7.938;2023-08-24T05:41:50;16.20;99.90
20459;DHT22;10388;52.314;7.938;2023-08-24T05:44:21;16.30;99.90
20459;DHT22;10388;52.314;7.938;2023-08-24T05:46:51;16.30;99.90
20459;DHT22;10388;52.314;7.938;2023-08-24T05:49:22;16.30;99.90
20459;DHT22;10388;52.314;7.938;2023-08-24T05:51:53;16.40;99.90
20459;DHT22;10388;52.314;7.938;2023-08-24T05:54:23;16.50;99.90
20459;DHT22;10388;52.314;7.938;2023-08-24T05:56:54;16.50;99.90
20459;DHT22;10388;52.314;7.938;2023-08-24T05:59:24;16.60;99.90
20459;DHT22;10388;52.314;7.938;2023-08-24T06:01:55;16.60;99.90
20459;DHT22;10388;52.314;7.938;2023-08-24T06:04:25;16.60;99.90
20459;DHT22;10388;52.314;7.938;2023-08-24T06:06:56;16.60;99.90
20459;DHT22;10388;52.314;7.938;2023-08-24T06:09:26;16.60;99.90
20459;DHT22;10388;52.314;7.938;2023-08-24T06:11:57;16.60;99.90
20459;DHT22;10388;52.314;7.938;2023-08-24T06:14:27;16.60;99.90
20459;DHT22;10388;52.314;7.938;2023-08-24T06:16:58;16.60;99.90
20459;DHT22;10388;52.314;7.938;2023-08-24T06:19:28;16.70;99.90
20459;DHT22;10388;52.314;7.938;2023-08-24T06:21:59;16.80;99.90
20459;DHT22;10388;52.314;7.938;2023-08-24T06:24:29;17.00;99.90
20459;DHT22;10388;52.314;7.938;2023-08-24T06:27:00;17.10;99.90
20459;DHT22;10388;52.314;7.938;2023-08-24T06:29:31;17.20;99.90
20459;DHT22;10388;52.314;7.938;2023-08-24T06:32:01;17.40;99.90
20459;DHT22;10388;52.314;7.938;2023-08-24T06:34:31;17.40;99.90
20459;DHT22;10388;52.314;7.938;2023-08-24T06:37:02;17.50;99.90
20459;DHT22;10388;52.314;7.938;2023-08-24T06:39:33;17.60;99.90
20459;DHT22;10388;52.314;7.938;2023-08-24T06:42:04;17.70;99.90
20459;DHT22;10388;52.314;7.938;2023-08-24T06:44:35;17.80;99.90
20459;DHT22;10388;52.314;7.938;2023-08-24T06:47:06;17.90;99.90
20459;DHT22;10388;52.314;7.938;2023-08-24T06:49:37;17.90;99.90
20459;DHT22;10388;52.314;7.938;2023-08-24T06:52:07;18.10;99.90
20459;DHT22;10388;52.314;7.938;2023-08-24T06:54:38;18.20;99.90
20459;DHT22;10388;52.314;7.938;2023-08-24T06:57:09;18.20;99.90
20459;DHT22;10388;52.314;7.938;2023-08-24T06:59:40;18.30;99.90
20459;DHT22;10388;52.314;7.938;2023-08-24T07:02:10;18.30;99.90
20459;DHT22;10388;52.314;7.938;2023-08-24T07:04:41;18.30;99.90
20459;DHT22;10388;52.314;7.938;2023-08-24T07:07:11;18.50;99.90
20459;DHT22;10388;52.314;7.938;2023-08-24T07:09:42;18.60;99.90
20459;DHT22;10388;52.314;7.938;2023-08-24T07:12:12;18.60;99.90
20459;DHT22;10388;52.314;7.938;2023-08-24T07:14:43;18.70;99.90
20459;DHT22;10388;52.314;7.938;2023-08-24T07:17:13;18.90;99.90
20459;DHT22;10388;52.314;7.938;2023-08-24T07:19:44;19.00;99.90
20459;DHT22;10388;52.314;7.938;2023-08-24T07:22:15;19.10;99.90
20459;DHT22;10388;52.314;7.938;2023-08-24T07:24:45;19.10;99.90
20459;DHT22;10388;52.314;7.938;2023-08-24T07:27:16;19.20;99.90
20459;DHT22;10388;52.314;7.938;2023-08-24T07:29:47;19.20;99.90
20459;DHT22;10388;52.314;7.938;2023-08-24T07:32:18;19.30;99.90
20459;DHT22;10388;52.314;7.938;2023-08-24T07:34:49;19.40;99.90
20459;DHT22;10388;52.314;7.938;2023-08-24T07:37:20;19.50;99.90
20459;DHT22;10388;52.314;7.938;2023-08-24T07:39:50;19.60;99.90
20459;DHT22;10388;52.314;7.938;2023-08-24T07:42:21;19.70;99.90
20459;DHT22;10388;52.314;7.938;2023-08-24T07:44:52;19.70;99.90
20459;DHT22;10388;52.314;7.938;2023-08-24T07:47:22;19.80;99.90
20459;DHT22;10388;52.314;7.938;2023-08-24T07:49:53;19.90;99.90
20459;DHT22;10388;52.314;7.938;2023-08-24T07:52:23;20.00;99.90
20459;DHT22;10388;52.314;7.938;2023-08-24T07:54:57;20.10;99.90
20459;DHT22;10388;52.314;7.938;2023-08-24T07:57:30;20.30;99.90
20459;DHT22;10388;52.314;7.938;2023-08-24T08:00:02;20.30;99.90
20459;DHT22;10388;52.314;7.938;2023-08-24T08:02:33;20.30;99.90
20459;DHT22;10388;52.314;7.938;2023-08-24T08:05:04;20.40;99.90
20459;DHT22;10388;52.314;7.938;2023-08-24T08:07:34;20.40;99.90
20459;DHT22;10388;52.314;7.938;2023-08-24T08:10:05;20.50;99.90
20459;DHT22;10388;52.314;7.938;2023-08-24T08:12:36;20.60;99.90
20459;DHT22;10388;52.314;7.938;2023-08-24T08:15:07;20.70;99.90
20459;DHT22;10388;52.314;7.938;2023-08-24T08:17:38;20.80;99.90
20459;DHT22;10388;52.314;7.938;2023-08-24T08:20:08;20.90;99.90
20459;DHT22;10388;52.314;7.938;2023-08-24T08:22:39;21.00;99.90
20459;DHT22;10388;52.314;7.938;2023-08-24T08:25:10;21.10;99.90
20459;DHT22;10388;52.314;7.938;2023-08-24T08:27:42;21.10;99.90
20459;DHT22;10388;52.314;7.938;2023-08-24T08:30:13;21.30;99.90
20459;DHT22;10388;52.314;7.938;2023-08-24T08:32:43;21.30;99.90
20459;DHT22;10388;52.314;7.938;2023-08-24T08:35:14;21.50;99.90
20459;DHT22;10388;52.314;7.938;2023-08-24T08:37:45;21.60;99.90
20459;DHT22;10388;52.314;7.938;2023-08-24T08:40:17;21.60;99.90
20459;DHT22;10388;52.314;7.938;2023-08-24T08:42:48;21.60;99.90
20459;DHT22;10388;52.314;7.938;2023-08-24T08:45:18;21.60;99.90
20459;DHT22;10388;52.314;7.938;2023-08-24T08:47:51;21.60;99.90
20459;DHT22;10388;52.314;7.938;2023-08-24T08:50:23;21.80;99.90
20459;DHT22;10388;52.314;7.938;2023-08-24T08:52:54;22.00;99.90
20459;DHT22;10388;52.314;7.938;2023-08-24T08:55:25;22.10;99.90
20459;DHT22;10388;52.314;7.938;2023-08-24T08:57:58;22.30;99.90
20459;DHT22;10388;52.314;7.938;2023-08-24T09:00:29;22.40;99.90
20459;DHT22;10388;52.314;7.938;2023-08-24T09:03:03;22.40;99.90
20459;DHT22;10388;52.314;7.938;2023-08-24T09:05:36;22.50;99.90
20459;DHT22;10388;52.314;7.938;2023-08-24T09:08:07;22.60;99.90
20459;DHT22;10388;52.314;7.938;2023-08-24T09:10:39;22.80;99.90
20459;DHT22;10388;52.314;7.938;2023-08-24T09:13:09;22.80;99.90
20459;DHT22;10388;52.314;7.938;2023-08-24T09:15:40;23.00;99.90
20459;DHT22;10388;52.314;7.938;2023-08-24T09:18:10;23.00;99.90
20459;DHT22;10388;52.314;7.938;2023-08-24T09:20:41;23.20;99.90
20459;DHT22;10388;52.314;7.938;2023-08-24T09:23:18;23.30;99.90
20459;DHT22;10388;52.314;7.938;2023-08-24T09:25:52;23.40;99.90
20459;DHT22;10388;52.314;7.938;2023-08-24T09:28:23;23.40;99.90
20459;DHT22;10388;52.314;7.938;2023-08-24T09:31:00;23.50;99.90
20459;DHT22;10388;52.314;7.938;2023-08-24T09:33:31;23.70;99.90
20459;DHT22;10388;52.314;7.938;2023-08-24T09:36:06;23.70;99.90
20459;DHT22;10388;52.314;7.938;2023-08-24T09:38:36;23.80;99.90
20459;DHT22;10388;52.314;7.938;2023-08-24T09:41:07;24.00;99.90
20459;DHT22;10388;52.314;7.938;2023-08-24T09:43:40;24.00;99.90
20459;DHT22;10388;52.314;7.938;2023-08-24T09:46:10;24.20;99.90
20459;DHT22;10388;52.314;7.938;2023-08-24T09:48:41;24.40;99.90
20459;DHT22;10388;52.314;7.938;2023-08-24T09:51:13;24.40;99.90
20459;DHT22;10388;52.314;7.938;2023-08-24T09:53:44;24.40;99.90
20459;DHT22;10388;52.314;7.938;2023-08-24T09:56:15;24.40;99.90
20459;DHT22;10388;52.314;7.938;2023-08-24T09:58:46;24.50;99.90
20459;DHT22;10388;52.314;7.938;2023-08-24T10:01:19;24.50;99.90
20459;DHT22;10388;52.314;7.938;2023-08-24T10:03:51;24.60;99.90
20459;DHT22;10388;52.314;7.938;2023-08-24T10:06:23;24.80;99.90
20459;DHT22;10388;52.314;7.938;2023-08-24T10:09:00;24.90;99.90
20459;DHT22;10388;52.314;7.938;2023-08-24T10:11:34;24.80;99.90
20459;DHT22;10388;52.314;7.938;2023-08-24T10:14:15;25.00;99.90
20459;DHT22;10388;52.314;7.938;2023-08-24T10:16:47;25.00;99.90
20459;DHT22;10388;52.314;7.938;2023-08-24T10:19:18;25.10;99.90
20459;DHT22;10388;52.314;7.938;2023-08-24T10:21:53;25.10;99.90
20459;DHT22;10388;52.314;7.938;2023-08-24T10:24:28;25.20;99.90
20459;DHT22;10388;52.314;7.938;2023-08-24T10:27:00;25.50;99.90
20459;DHT22;10388;52.314;7.938;2023-08-24T10:29:31;25.60;99.90
20459;DHT22;10388;52.314;7.938;2023-08-24T10:32:02;25.80;99.90
20459;DHT22;10388;52.314;7.938;2023-08-24T10:34:34;26.00;99.90
20459;DHT22;10388;52.314;7.938;2023-08-24T10:37:08;26.10;99.90
20459;DHT22;10388;52.314;7.938;2023-08-24T10:39:44;26.00;99.90
20459;DHT22;10388;52.314;7.938;2023-08-24T10:42:18;26.00;99.90
20459;DHT22;10388;52.314;7.938;2023-08-24T10:44:48;26.00;99.90
20459;DHT22;10388;52.314;7.938;2023-08-24T10:47:23;26.20;99.90
20459;DHT22;10388;52.314;7.938;2023-08-24T10:49:57;26.30;99.90
20459;DHT22;10388;52.314;7.938;2023-08-24T10:52:36;26.20;99.90
20459;DHT22;10388;52.314;7.938;2023-08-24T10:55:26;26.50;99.90
20459;DHT22;10388;52.314;7.938;2023-08-24T10:57:58;26.60;99.90
20459;DHT22;10388;52.314;7.938;2023-08-24T11:00:30;26.70;99.90
20459;DHT22;10388;52.314;7.938;2023-08-24T11:03:00;26.80;99.90
20459;DHT22;10388;52.314;7.938;2023-08-24T11:05:32;26.80;99.90
20459;DHT22;10388;52.314;7.938;2023-08-24T11:08:06;26.70;99.90
20459;DHT22;10388;52.314;7.938;2023-08-24T11:13:17;26.70;99.90
20459;DHT22;10388;52.314;7.938;2023-08-24T11:15:50;26.90;99.90
20459;DHT22;10388;52.314;7.938;2023-08-24T11:18:27;27.00;99.90
20459;DHT22;10388;52.314;7.938;2023-08-24T11:21:02;27.00;99.90
20459;DHT22;10388;52.314;7.938;2023-08-24T11:23:33;27.10;99.90
20459;DHT22;10388;52.314;7.938;2023-08-24T11:26:05;27.20;99.90
20459;DHT22;10388;52.314;7.938;2023-08-24T11:28:37;27.10;99.90
20459;DHT22;10388;52.314;7.938;2023-08-24T11:31:09;27.40;99.90
20459;DHT22;10388;52.314;7.938;2023-08-24T11:33:39;27.50;99.90
20459;DHT22;10388;52.314;7.938;2023-08-24T11:36:11;27.60;99.90
20459;DHT22;10388;52.314;7.938;2023-08-24T11:38:42;27.80;99.90
20459;DHT22;10388;52.314;7.938;2023-08-24T11:41:19;27.80;99.90
20459;DHT22;10388;52.314;7.938;2023-08-24T11:44:00;27.70;99.90
20459;DHT22;10388;52.314;7.938;2023-08-24T11:46:30;27.60;99.90
20459;DHT22;10388;52.314;7.938;2023-08-24T11:49:01;27.60;99.90
20459;DHT22;10388;52.314;7.938;2023-08-24T11:51:36;27.60;99.90
20459;DHT22;10388;52.314;7.938;2023-08-24T11:54:07;27.60;99.90
20459;DHT22;10388;52.314;7.938;2023-08-24T11:56:42;27.70;99.90
20459;DHT22;10388;52.314;7.938;2023-08-24T11:59:13;27.60;99.90
20459;DHT22;10388;52.314;7.938;2023-08-24T12:01:45;27.50;99.90
20459;DHT22;10388;52.314;7.938;2023-08-24T12:04:17;27.50;99.90
20459;DHT22;10388;52.314;7.938;2023-08-24T12:06:47;27.40;99.90
20459;DHT22;10388;52.314;7.938;2023-08-24T12:09:18;27.40;99.90
20459;DHT22;10388;52.314;7.938;2023-08-24T12:11:48;27.50;99.90
20459;DHT22;10388;52.314;7.938;2023-08-24T12:14:19;27.50;99.90
20459;DHT22;10388;52.314;7.938;2023-08-24T12:16:49;27.70;99.90
20459;DHT22;10388;52.314;7.938;2023-08-24T12:19:23;27.70;99.90
20459;DHT22;10388;52.314;7.938;2023-08-24T12:21:54;27.80;99.90
20459;DHT22;10388;52.314;7.938;2023-08-24T12:24:24;27.80;99.90
20459;DHT22;10388;52.314;7.938;2023-08-24T12:26:56;27.90;99.90
20459;DHT22;10388;52.314;7.938;2023-08-24T12:29:28;27.90;99.90
20459;DHT22;10388;52.314;7.938;2023-08-24T12:31:58;27.80;99.90
20459;DHT22;10388;52.314;7.938;2023-08-24T12:34:29;27.80;99.90
20459;DHT22;10388;52.314;7.938;2023-08-24T12:36:59;27.70;99.90
20459;DHT22;10388;52.314;7.938;2023-08-24T12:39:41;27.70;99.90
20459;DHT22;10388;52.314;7.938;2023-08-24T12:42:11;27.70;99.90
20459;DHT22;10388;52.314;7.938;2023-08-24T12:44:42;27.90;99.90
20459;DHT22;10388;52.314;7.938;2023-08-24T12:47:13;27.80;99.90
20459;DHT22;10388;52.314;7.938;2023-08-24T12:49:43;27.80;99.90
20459;DHT22;10388;52.314;7.938;2023-08-24T12:52:14;27.80;99.90
20459;DHT22;10388;52.314;7.938;2023-08-24T12:54:45;27.70;99.90
20459;DHT22;10388;52.314;7.938;2023-08-24T12:57:15;27.80;99.90
20459;DHT22;10388;52.314;7.938;2023-08-24T12:59:46;27.80;99.90
20459;DHT22;10388;52.314;7.938;2023-08-24T13:02:17;27.70;99.90
20459;DHT22;10388;52.314;7.938;2023-08-24T13:04:47;27.60;99.90
20459;DHT22;10388;52.314;7.938;2023-08-24T13:07:18;27.40;99.90
20459;DHT22;10388;52.314;7.938;2023-08-24T13:09:49;27.30;99.90
20459;DHT22;10388;52.314;7.938;2023-08-24T13:12:19;27.30;99.90
20459;DHT22;10388;52.314;7.938;2023-08-24T13:14:50;27.20;99.90
20459;DHT22;10388;52.314;7.938;2023-08-24T13:17:20;27.20;99.90
20459;DHT22;10388;52.314;7.938;2023-08-24T13:19:51;27.30;99.90
20459;DHT22;10388;52.314;7.938;2023-08-24T13:22:22;27.30;99.90
20459;DHT22;10388;52.314;7.938;2023-08-24T13:24:52;27.30;99.90
20459;DHT22;10388;52.314;7.938;2023-08-24T13:27:23;27.30;99.90
20459;DHT22;10388;52.314;7.938;2023-08-24T13:29:53;27.40;99.90
20459;DHT22;10388;52.314;7.938;2023-08-24T13:32:27;27.40;99.90
20459;DHT22;10388;52.314;7.938;2023-08-24T13:34:58;27.40;99.90
20459;DHT22;10388;52.314;7.938;2023-08-24T13:37:28;27.40;99.90
20459;DHT22;10388;52.314;7.938;2023-08-24T13:39:59;27.30;99.90
20459;DHT22;10388;52.314;7.938;2023-08-24T13:42:30;27.20;99.90
20459;DHT22;10388;52.314;7.938;2023-08-24T13:45:00;27.20;99.90
20459;DHT22;10388;52.314;7.938;2023-08-24T13:47:31;27.10;99.90
20459;DHT22;10388;52.314;7.938;2023-08-24T13:50:02;27.10;99.90
20459;DHT22;10388;52.314;7.938;2023-08-24T13:52:33;27.00;99.90
20459;DHT22;10388;52.314;7.938;2023-08-24T13:55:03;27.00;99.90
20459;DHT22;10388;52.314;7.938;2023-08-24T13:57:34;27.00;99.90
20459;DHT22;10388;52.314;7.938;2023-08-24T14:00:05;27.00;99.90
20459;DHT22;10388;52.314;7.938;2023-08-24T14:02:38;27.10;99.90
20459;DHT22;10388;52.314;7.938;2023-08-24T14:05:09;27.10;99.90
20459;DHT22;10388;52.314;7.938;2023-08-24T14:07:40;27.00;99.90
20459;DHT22;10388;52.314;7.938;2023-08-24T14:10:11;26.90;99.90
20459;DHT22;10388;52.314;7.938;2023-08-24T14:12:42;26.90;99.90
20459;DHT22;10388;52.314;7.938;2023-08-24T14:15:12;26.90;99.90
20459;DHT22;10388;52.314;7.938;2023-08-24T14:17:44;26.80;99.90
20459;DHT22;10388;52.314;7.938;2023-08-24T14:20:14;26.70;99.90
20459;DHT22;10388;52.314;7.938;2023-08-24T14:22:46;26.60;99.90
20459;DHT22;10388;52.314;7.938;2023-08-24T14:25:18;26.50;99.90
20459;DHT22;10388;52.314;7.938;2023-08-24T14:27:49;26.50;99.90
20459;DHT22;10388;52.314;7.938;2023-08-24T14:30:19;26.40;99.90
20459;DHT22;10388;52.314;7.938;2023-08-24T14:32:50;26.20;99.90
20459;DHT22;10388;52.314;7.938;2023-08-24T14:35:20;26.20;99.90
20459;DHT22;10388;52.314;7.938;2023-08-24T14:37:51;26.10;99.90
20459;DHT22;10388;52.314;7.938;2023-08-24T14:40:22;26.00;99.90
20459;DHT22;10388;52.314;7.938;2023-08-24T14:42:52;25.90;99.90
20459;DHT22;10388;52.314;7.938;2023-08-24T14:45:23;25.80;99.90
20459;DHT22;10388;52.314;7.938;2023-08-24T14:47:54;25.80;99.90
20459;DHT22;10388;52.314;7.938;2023-08-24T14:50:24;25.80;99.90
20459;DHT22;10388;52.314;7.938;2023-08-24T14:52:55;25.70;99.90
20459;DHT22;10388;52.314;7.938;2023-08-24T14:55:25;25.60;99.90
20459;DHT22;10388;52.314;7.938;2023-08-24T14:57:56;25.60;99.90
20459;DHT22;10388;52.314;7.938;2023-08-24T15:00:27;25.50;99.90
20459;DHT22;10388;52.314;7.938;2023-08-24T15:02:58;25.40;99.90
20459;DHT22;10388;52.314;7.938;2023-08-24T15:05:28;25.30;99.90
20459;DHT22;10388;52.314;7.938;2023-08-24T15:07:59;25.30;99.90
20459;DHT22;10388;52.314;7.938;2023-08-24T15:10:29;25.20;99.90
20459;DHT22;10388;52.314;7.938;2023-08-24T15:13:00;25.20;99.90
20459;DHT22;10388;52.314;7.938;2023-08-24T15:18:04;25.00;99.90
20459;DHT22;10388;52.314;7.938;2023-08-24T15:20:35;24.90;99.90
20459;DHT22;10388;52.314;7.938;2023-08-24T15:23:05;24.90;99.90
20459;DHT22;10388;52.314;7.938;2023-08-24T15:25:37;24.80;99.90
20459;DHT22;10388;52.314;7.938;2023-08-24T15:28:07;24.70;99.90
20459;DHT22;10388;52.314;7.938;2023-08-24T15:30:38;24.60;99.90
20459;DHT22;10388;52.314;7.938;2023-08-24T15:33:08;24.50;99.90
20459;DHT22;10388;52.314;7.938;2023-08-24T15:35:40;24.50;99.90
20459;DHT22;10388;52.314;7.938;2023-08-24T15:38:11;24.50;99.90
20459;DHT22;10388;52.314;7.938;2023-08-24T15:40:45;24.40;99.90
20459;DHT22;10388;52.314;7.938;2023-08-24T15:43:21;24.30;99.90
20459;DHT22;10388;52.314;7.938;2023-08-24T15:45:51;24.20;99.90
20459;DHT22;10388;52.314;7.938;2023-08-24T15:48:22;24.10;99.90
20459;DHT22;10388;52.314;7.938;2023-08-24T15:50:57;24.10;99.90
20459;DHT22;10388;52.314;7.938;2023-08-24T15:53:28;24.10;99.90
20459;DHT22;10388;52.314;7.938;2023-08-24T15:55:58;24.10;99.90
20459;DHT22;10388;52.314;7.938;2023-08-24T15:58:29;24.10;99.90
20459;DHT22;10388;52.314;7.938;2023-08-24T16:00:59;24.00;99.90
20459;DHT22;10388;52.314;7.938;2023-08-24T16:03:31;24.00;99.90
20459;DHT22;10388;52.314;7.938;2023-08-24T16:06:01;24.00;99.90
20459;DHT22;10388;52.314;7.938;2023-08-24T16:08:32;24.00;99.90
20459;DHT22;10388;52.314;7.938;2023-08-24T16:11:02;24.00;99.90
20459;DHT22;10388;52.314;7.938;2023-08-24T16:13:33;24.00;99.90
20459;DHT22;10388;52.314;7.938;2023-08-24T16:16:03;24.00;99.90
20459;DHT22;10388;52.314;7.938;2023-08-24T16:18:34;24.00;99.90
20459;DHT22;10388;52.314;7.938;2023-08-24T16:21:04;24.00;99.90
20459;DHT22;10388;52.314;7.938;2023-08-24T16:23:35;23.90;99.90
20459;DHT22;10388;52.314;7.938;2023-08-24T16:26:06;23.90;99.90
20459;DHT22;10388;52.314;7.938;2023-08-24T16:28:36;23.90;99.90
20459;DHT22;10388;52.314;7.938;2023-08-24T16:31:07;23.90;99.90
20459;DHT22;10388;52.314;7.938;2023-08-24T16:33:38;23.80;99.90
20459;DHT22;10388;52.314;7.938;2023-08-24T16:36:10;23.80;99.90
20459;DHT22;10388;52.314;7.938;2023-08-24T16:38:41;23.70;99.90
20459;DHT22;10388;52.314;7.938;2023-08-24T16:41:12;23.80;99.90
20459;DHT22;10388;52.314;7.938;2023-08-24T16:43:42;23.70;99.90
20459;DHT22;10388;52.314;7.938;2023-08-24T16:46:13;23.70;99.90
20459;DHT22;10388;52.314;7.938;2023-08-24T16:48:44;23.70;99.90
20459;DHT22;10388;52.314;7.938;2023-08-24T16:51:14;23.60;99.90
20459;DHT22;10388;52.314;7.938;2023-08-24T16:53:45;23.60;99.90
20459;DHT22;10388;52.314;7.938;2023-08-24T16:56:15;23.60;99.90
20459;DHT22;10388;52.314;7.938;2023-08-24T16:58:46;23.50;99.90
20459;DHT22;10388;52.314;7.938;2023-08-24T17:01:16;23.50;99.90
20459;DHT22;10388;52.314;7.938;2023-08-24T17:03:47;23.50;99.90
20459;DHT22;10388;52.314;7.938;2023-08-24T17:06:18;23.40;99.90
20459;DHT22;10388;52.314;7.938;2023-08-24T17:08:48;23.40;99.90
20459;DHT22;10388;52.314;7.938;2023-08-24T17:11:19;23.40;99.90
20459;DHT22;10388;52.314;7.938;2023-08-24T17:13:53;23.30;99.90
20459;DHT22;10388;52.314;7.938;2023-08-24T17:16:24;23.40;99.90
20459;DHT22;10388;52.314;7.938;2023-08-24T17:18:54;23.40;99.90
20459;DHT22;10388;52.314;7.938;2023-08-24T17:21:25;23.30;99.90
20459;DHT22;10388;52.314;7.938;2023-08-24T17:23:55;23.30;99.90
20459;DHT22;10388;52.314;7.938;2023-08-24T17:26:27;23.30;99.90
20459;DHT22;10388;52.314;7.938;2023-08-24T17:28:57;23.30;99.90
20459;DHT22;10388;52.314;7.938;2023-08-24T17:31:28;23.20;99.90
20459;DHT22;10388;52.314;7.938;2023-08-24T17:33:58;23.20;99.90
20459;DHT22;10388;52.314;7.938;2023-08-24T17:36:29;23.20;99.90
20459;DHT22;10388;52.314;7.938;2023-08-24T17:38:59;23.10;99.90
20459;DHT22;10388;52.314;7.938;2023-08-24T17:41:30;23.10;99.90
20459;DHT22;10388;52.314;7.938;2023-08-24T17:44:00;23.10;99.90
20459;DHT22;10388;52.314;7.938;2023-08-24T17:46:35;23.10;99.90
20459;DHT22;10388;52.314;7.938;2023-08-24T17:49:05;23.00;99.90
20459;DHT22;10388;52.314;7.938;2023-08-24T17:51:36;23.00;99.90
20459;DHT22;10388;52.314;7.938;2023-08-24T17:54:06;23.00;99.90
20459;DHT22;10388;52.314;7.938;2023-08-24T17:56:37;22.90;99.90
20459;DHT22;10388;52.314;7.938;2023-08-24T17:59:07;22.90;99.90
20459;DHT22;10388;52.314;7.938;2023-08-24T18:01:38;22.90;99.90
20459;DHT22;10388;52.314;7.938;2023-08-24T18:04:08;22.80;99.90
20459;DHT22;10388;52.314;7.938;2023-08-24T18:06:39;22.80;99.90
20459;DHT22;10388;52.314;7.938;2023-08-24T18:09:10;22.80;99.90
20459;DHT22;10388;52.314;7.938;2023-08-24T18:11:40;22.80;99.90
20459;DHT22;10388;52.314;7.938;2023-08-24T18:14:11;22.70;99.90
20459;DHT22;10388;52.314;7.938;2023-08-24T18:16:41;22.70;99.90
20459;DHT22;10388;52.314;7.938;2023-08-24T18:19:12;22.70;99.90
20459;DHT22;10388;52.314;7.938;2023-08-24T18:21:42;22.60;99.90
20459;DHT22;10388;52.314;7.938;2023-08-24T18:24:13;22.60;99.90
20459;DHT22;10388;52.314;7.938;2023-08-24T18:26:43;22.60;99.90
20459;DHT22;10388;52.314;7.938;2023-08-24T18:29:14;22.50;99.90
20459;DHT22;10388;52.314;7.938;2023-08-24T18:31:44;22.50;99.90
20459;DHT22;10388;52.314;7.938;2023-08-24T18:34:15;22.40;99.90
20459;DHT22;10388;52.314;7.938;2023-08-24T18:36:46;22.40;99.90
20459;DHT22;10388;52.314;7.938;2023-08-24T18:39:18;22.40;99.90
20459;DHT22;10388;52.314;7.938;2023-08-24T18:41:48;22.30;99.90
20459;DHT22;10388;52.314;7.938;2023-08-24T18:44:20;22.30;99.90
20459;DHT22;10388;52.314;7.938;2023-08-24T18:46:51;22.20;99.90
20459;DHT22;10388;52.314;7.938;2023-08-24T18:49:23;22.20;99.90
20459;DHT22;10388;52.314;7.938;2023-08-24T18:51:53;22.10;99.90
20459;DHT22;10388;52.314;7.938;2023-08-24T18:54:24;22.10;99.90
20459;DHT22;10388;52.314;7.938;2023-08-24T18:56:56;22.00;99.90
20459;DHT22;10388;52.314;7.938;2023-08-24T18:59:27;21.90;99.90
20459;DHT22;10388;52.314;7.938;2023-08-24T19:01:57;21.90;99.90
20459;DHT22;10388;52.314;7.938;2023-08-24T19:04:28;21.90;99.90
20459;DHT22;10388;52.314;7.938;2023-08-24T19:06:58;21.90;99.90
20459;DHT22;10388;52.314;7.938;2023-08-24T19:09:29;21.80;99.90
20459;DHT22;10388;52.314;7.938;2023-08-24T19:12:00;21.80;99.90
20459;DHT22;10388;52.314;7.938;2023-08-24T19:14:31;21.80;99.90
20459;DHT22;10388;52.314;7.938;2023-08-24T19:17:04;21.80;99.90
20459;DHT22;10388;52.314;7.938;2023-08-24T19:19:35;21.80;99.90
20459;DHT22;10388;52.314;7.938;2023-08-24T19:22:06;21.80;99.90
20459;DHT22;10388;52.314;7.938;2023-08-24T19:24:36;21.70;99.90
20459;DHT22;10388;52.314;7.938;2023-08-24T19:27:07;21.70;99.90
20459;DHT22;10388;52.314;7.938;2023-08-24T19:29:37;21.60;99.90